Time;durP1;ratioP1;P1;durP2;ratioP2;P2;SDS_P1;SDS_P2;PMS_P1;PMS_P2;Temp;Humidity;BMP_temperature;BMP_pressure;BME280_temperature;BME280_humidity;BME280_pressure;Samples;Min_cycle;Max_cycle;Signal;HPM_P1;HPM_P2
2023/12/22 00:01:22;;;;;;;10.07;9.77;;;5.20;99.90;;;;;;5145057;27;20230;-81
2023/12/22 00:03:49;;;;;;;10.20;9.90;;;5.10;99.90;;;;;;5143987;27;20245;-84
2023/12/22 00:06:17;;;;;;;10.20;9.90;;;5.10;99.90;;;;;;5145381;27;20272;-82
2023/12/22 00:08:46;;;;;;;10.40;10.10;;;5.10;99.90;;;;;;5144475;27;20224;-85
2023/12/22 00:11:14;;;;;;;10.40;10.10;;;5.10;99.90;;;;;;5143898;27;20238;-82
2023/12/22 00:19:10;;;;;;;10.67;10.37;;;4.90;99.90;;;;;;5151616;27;20233;-87
2023/12/22 00:30:11;;;;;;;10.93;10.63;;;4.70;99.90;;;;;;5133939;28;20278;-89
2023/12/22 00:38:22;;;;;;;10.50;10.20;;;4.60;99.90;;;;;;5157407;27;20255;-90
2023/12/22 00:40:52;;;;;;;10.63;10.33;;;4.50;99.90;;;;;;5157635;27;20219;-90
2023/12/22 00:49:21;;;;;;;10.80;10.50;;;4.50;99.90;;;;;;5157725;27;20235;-90
2023/12/22 00:51:51;;;;;;;10.60;10.30;;;4.50;99.90;;;;;;5155678;27;20267;-90
2023/12/22 00:57:33;;;;;;;10.53;10.23;;;4.50;99.90;;;;;;5155263;27;20220;-92
2023/12/22 01:06:02;;;;;;;10.70;10.40;;;4.50;99.90;;;;;;5153836;27;20231;-90
2023/12/22 01:08:34;;;;;;;10.77;10.47;;;4.50;99.90;;;;;;5153676;27;20224;-90
2023/12/22 01:14:06;;;;;;;10.50;10.20;;;4.40;99.90;;;;;;5150934;27;20213;-90
2023/12/22 01:16:38;;;;;;;10.40;10.10;;;4.40;99.90;;;;;;5133370;28;20224;-90
2023/12/22 01:19:06;;;;;;;10.40;10.10;;;4.40;99.90;;;;;;5132604;28;20256;-90
2023/12/22 01:27:19;;;;;;;10.67;10.37;;;4.40;99.90;;;;;;5094358;28;20226;-89
2023/12/22 01:29:55;;;;;;;10.57;10.27;;;4.40;99.90;;;;;;5095153;28;20225;-90
2023/12/22 01:38:33;;;;;;;10.40;10.10;;;4.40;99.90;;;;;;5065867;28;20285;-89
2023/12/22 01:41:26;;;;;;;10.70;10.40;;;4.40;99.90;;;;;;5093416;28;20325;-88
2023/12/22 01:50:29;;;;;;;10.60;10.30;;;4.40;99.90;;;;;;5085958;28;20218;-89
2023/12/22 01:53:06;;;;;;;10.60;10.30;;;4.40;99.90;;;;;;5086908;28;20230;-89
2023/12/22 01:55:35;;;;;;;10.87;10.57;;;4.40;99.90;;;;;;5087335;28;20236;-90
2023/12/22 01:58:03;;;;;;;10.67;10.37;;;4.40;99.90;;;;;;5085521;28;20222;-88
2023/12/22 02:00:32;;;;;;;10.57;10.27;;;4.40;99.90;;;;;;5085644;28;20286;-90
2023/12/22 02:03:04;;;;;;;10.80;10.50;;;4.40;99.90;;;;;;5085529;28;20234;-88
2023/12/22 02:05:35;;;;;;;10.50;10.20;;;4.40;99.90;;;;;;5085418;28;20313;-89
2023/12/22 02:08:21;;;;;;;10.60;10.30;;;4.40;99.90;;;;;;5086403;28;20211;-89
2023/12/22 02:10:49;;;;;;;10.57;10.27;;;4.40;99.90;;;;;;5086160;28;20226;-89
2023/12/22 02:13:18;;;;;;;10.60;10.30;;;4.30;99.90;;;;;;5085327;28;20301;-89
2023/12/22 02:15:49;;;;;;;10.50;10.20;;;4.30;99.90;;;;;;5085561;28;20241;-88
2023/12/22 02:21:07;;;;;;;10.80;10.50;;;4.40;99.90;;;;;;5078239;28;20294;-89
2023/12/22 02:23:36;;;;;;;10.53;10.23;;;4.40;99.90;;;;;;5086176;28;20240;-88
2023/12/22 02:26:14;;;;;;;10.80;10.50;;;4.40;99.90;;;;;;5094777;28;20225;-87
2023/12/22 02:28:42;;;;;;;10.70;10.40;;;4.40;99.90;;;;;;5093223;28;20228;-89
2023/12/22 02:31:19;;;;;;;11.00;10.67;;;4.40;99.90;;;;;;5086018;28;20245;-89
2023/12/22 02:33:49;;;;;;;10.70;10.40;;;4.40;99.90;;;;;;5067716;28;20241;-89
2023/12/22 02:36:19;;;;;;;10.60;10.30;;;4.50;99.90;;;;;;5086433;28;20294;-89
2023/12/22 02:38:56;;;;;;;10.50;10.20;;;4.50;99.90;;;;;;5085038;28;20230;-89
2023/12/22 02:41:26;;;;;;;10.70;10.40;;;4.50;99.90;;;;;;5086135;28;20226;-89
2023/12/22 02:43:55;;;;;;;10.67;10.37;;;4.50;99.90;;;;;;5086858;28;20249;-89
2023/12/22 02:46:25;;;;;;;10.20;9.90;;;4.50;99.90;;;;;;5089334;28;20234;-89
2023/12/22 02:49:04;;;;;;;10.60;10.30;;;4.40;99.90;;;;;;5094458;28;20213;-89
2023/12/22 02:51:33;;;;;;;10.63;10.33;;;4.30;99.90;;;;;;5090476;28;20222;-90
2023/12/22 02:57:00;;;;;;;10.50;10.20;;;4.20;99.90;;;;;;5087120;28;20226;-90
2023/12/22 02:59:28;;;;;;;10.13;9.83;;;4.20;99.90;;;;;;5085776;28;20307;-90
2023/12/22 03:02:14;;;;;;;10.13;9.83;;;4.10;99.90;;;;;;5084818;28;20246;-89
2023/12/22 03:04:46;;;;;;;10.40;10.10;;;4.10;99.90;;;;;;5084628;28;20233;-89
2023/12/22 03:07:13;;;;;;;10.03;9.73;;;4.10;99.90;;;;;;5084855;28;20226;-88
2023/12/22 03:12:31;;;;;;;10.07;9.77;;;4.10;99.90;;;;;;5090049;28;20244;-89
2023/12/22 03:14:59;;;;;;;10.17;9.87;;;4.10;99.90;;;;;;5065171;28;20237;-89
2023/12/22 03:17:38;;;;;;;10.30;10.00;;;4.10;99.90;;;;;;5068949;28;20235;-86
2023/12/22 03:20:07;;;;;;;10.17;9.87;;;4.10;99.90;;;;;;5061259;28;20321;-89
2023/12/22 03:25:18;;;;;;;10.07;9.77;;;4.00;99.90;;;;;;5084328;28;20730;-89
2023/12/22 03:27:46;;;;;;;10.10;9.80;;;4.00;99.90;;;;;;5092468;28;20221;-88
2023/12/22 03:30:14;;;;;;;10.03;9.73;;;4.00;99.90;;;;;;5105073;28;20317;-88
2023/12/22 03:32:43;;;;;;;10.10;9.80;;;4.00;99.90;;;;;;5105181;28;20233;-90
2023/12/22 03:35:22;;;;;;;10.53;10.23;;;4.00;99.90;;;;;;5105266;28;20994;-89
2023/12/22 03:37:50;;;;;;;10.80;10.50;;;4.00;99.90;;;;;;5105058;28;20240;-89
2023/12/22 03:43:16;;;;;;;10.30;10.00;;;4.00;99.90;;;;;;5119537;28;20202;-88
2023/12/22 03:45:45;;;;;;;10.30;10.00;;;4.00;99.90;;;;;;5119206;28;20240;-86
2023/12/22 03:48:12;;;;;;;10.10;9.80;;;3.90;99.90;;;;;;5119021;28;20223;-88
2023/12/22 03:53:22;;;;;;;10.10;9.80;;;3.90;99.90;;;;;;5108831;28;20312;-89
2023/12/22 03:58:49;;;;;;;10.50;10.20;;;3.90;99.90;;;;;;5108126;28;20218;-90
2023/12/22 04:01:17;;;;;;;10.40;10.10;;;3.80;99.90;;;;;;5106742;28;20232;-89
2023/12/22 04:03:49;;;;;;;10.37;10.07;;;3.90;99.90;;;;;;5105040;28;20260;-90
2023/12/22 04:06:19;;;;;;;10.43;10.13;;;3.80;99.90;;;;;;5104454;28;20316;-90
2023/12/22 04:08:47;;;;;;;10.20;9.90;;;3.90;99.90;;;;;;5108096;28;20225;-90
2023/12/22 04:14:03;;;;;;;10.27;9.97;;;3.90;99.90;;;;;;5105618;28;20232;-90
2023/12/22 04:16:33;;;;;;;10.27;9.97;;;3.90;99.90;;;;;;5088178;28;20272;-89
2023/12/22 04:19:12;;;;;;;10.33;10.03;;;3.90;99.90;;;;;;5091825;28;20237;-89
2023/12/22 04:21:42;;;;;;;10.43;10.13;;;3.90;99.90;;;;;;5127890;28;20283;-89
2023/12/22 04:24:10;;;;;;;10.50;10.20;;;3.90;99.90;;;;;;5128966;27;20233;-89
2023/12/22 04:29:37;;;;;;;10.40;10.10;;;3.90;99.90;;;;;;5132935;28;20236;-89
2023/12/22 04:32:05;;;;;;;10.50;10.20;;;3.90;99.90;;;;;;5128700;27;20221;-89
2023/12/22 04:34:44;;;;;;;10.30;10.00;;;3.90;99.90;;;;;;5128538;28;20283;-89
2023/12/22 04:37:12;;;;;;;10.27;9.97;;;3.80;99.90;;;;;;5128032;28;20220;-89
2023/12/22 04:39:42;;;;;;;10.27;9.97;;;3.80;99.90;;;;;;5128482;28;20221;-90
2023/12/22 04:42:14;;;;;;;10.50;10.20;;;3.70;99.90;;;;;;5129923;27;20298;-89
2023/12/22 04:44:42;;;;;;;10.60;10.30;;;3.70;99.90;;;;;;5129438;28;20286;-89
2023/12/22 04:47:12;;;;;;;10.60;10.30;;;3.70;99.90;;;;;;5128699;28;20290;-90
2023/12/22 04:49:40;;;;;;;10.67;10.37;;;3.70;99.90;;;;;;5128155;28;20373;-90
2023/12/22 04:52:19;;;;;;;10.57;10.27;;;3.60;99.90;;;;;;5129622;27;20235;-90
2023/12/22 04:54:48;;;;;;;10.60;10.30;;;3.60;99.90;;;;;;5128200;28;20248;-89
2023/12/22 05:00:04;;;;;;;10.50;10.20;;;3.60;99.90;;;;;;5136020;28;20251;-88
2023/12/22 05:02:36;;;;;;;10.67;10.37;;;3.60;99.90;;;;;;5135748;27;20216;-90
2023/12/22 05:07:50;;;;;;;10.47;10.17;;;3.60;99.90;;;;;;5132439;28;20240;-89
2023/12/22 05:10:31;;;;;;;10.27;9.97;;;3.60;99.90;;;;;;5134900;28;20231;-90
2023/12/22 05:13:08;;;;;;;10.30;10.00;;;3.60;99.90;;;;;;5138049;27;20247;-89
2023/12/22 05:18:33;;;;;;;10.40;10.10;;;3.70;99.90;;;;;;5131064;28;20228;-91
2023/12/22 05:24:24;;;;;;;10.40;10.10;;;3.70;99.90;;;;;;5127286;27;20240;-89
2023/12/22 05:27:01;;;;;;;10.50;10.20;;;3.80;99.90;;;;;;5127836;28;20244;-90
2023/12/22 05:37:53;;;;;;;10.80;10.50;;;3.70;99.90;;;;;;5127190;28;20217;-90
2023/12/22 05:40:33;;;;;;;;;;;;;;;;;;;;;
2023/12/22 05:43:22;;;;;;;10.37;10.07;;;3.70;99.90;;;;;;5134259;27;20232;-90
2023/12/22 05:46:06;;;;;;;10.30;10.00;;;3.60;99.90;;;;;;5127833;28;20221;-89
2023/12/22 05:48:47;;;;;;;9.83;9.53;;;3.60;99.90;;;;;;5127297;28;20229;-90
2023/12/22 05:53:59;;;;;;;9.80;9.50;;;3.40;99.90;;;;;;5125760;27;20213;-89
2023/12/22 05:56:34;;;;;;;10.17;9.87;;;3.30;99.90;;;;;;5127583;28;20212;-90
2023/12/22 05:59:06;;;;;;;9.70;9.40;;;3.30;99.90;;;;;;5137812;27;20258;-87
2023/12/22 06:01:56;;;;;;;10.57;10.27;;;3.20;99.90;;;;;;5139259;28;20261;-90
2023/12/22 06:04:24;;;;;;;10.33;10.03;;;3.10;99.90;;;;;;5139195;27;20245;-90
2023/12/22 06:09:34;;;;;;;10.40;10.10;;;3.00;99.90;;;;;;5123978;28;20248;-91
2023/12/22 06:12:04;;;;;;;10.43;10.13;;;3.00;99.90;;;;;;5130848;28;20229;-91
2023/12/22 06:14:32;;;;;;;10.43;10.13;;;3.00;99.90;;;;;;5142545;22;20260;-81
2023/12/22 06:17:00;;;;;;;10.30;10.00;;;3.00;99.90;;;;;;5126306;27;20319;-80
2023/12/22 06:19:30;;;;;;;10.00;9.70;;;3.00;99.90;;;;;;5140703;27;20285;-80
2023/12/22 06:21:59;;;;;;;10.17;9.87;;;3.00;99.90;;;;;;5134173;27;20224;-80
2023/12/22 06:24:27;;;;;;;10.40;10.10;;;3.00;99.90;;;;;;5132509;27;20314;-80
2023/12/22 06:26:54;;;;;;;9.93;9.63;;;2.90;99.90;;;;;;5139800;27;20216;-80
2023/12/22 06:29:22;;;;;;;9.80;9.50;;;2.90;99.90;;;;;;5140550;27;20255;-81
2023/12/22 06:31:52;;;;;;;9.90;9.60;;;3.00;99.90;;;;;;5144524;27;20326;-80
2023/12/22 06:34:21;;;;;;;9.63;9.33;;;3.00;99.90;;;;;;5143851;27;20244;-80
2023/12/22 06:36:49;;;;;;;10.03;9.73;;;3.00;99.90;;;;;;5144711;27;20224;-81
2023/12/22 06:39:16;;;;;;;9.83;9.53;;;3.00;99.90;;;;;;5144689;27;20258;-80
2023/12/22 06:41:44;;;;;;;9.90;9.60;;;3.00;99.90;;;;;;5145231;27;20285;-80
2023/12/22 06:44:11;;;;;;;9.80;9.50;;;3.00;99.90;;;;;;5144100;27;20242;-80
2023/12/22 06:46:39;;;;;;;9.83;9.53;;;2.90;99.90;;;;;;5145763;27;20232;-80
2023/12/22 06:49:07;;;;;;;9.80;9.50;;;2.90;99.90;;;;;;5145499;27;20232;-81
2023/12/22 06:51:35;;;;;;;9.90;9.60;;;2.90;99.90;;;;;;5149548;27;21034;-80
2023/12/22 06:54:04;;;;;;;9.80;9.50;;;2.90;99.90;;;;;;5144395;27;20289;-80
2023/12/22 06:56:34;;;;;;;9.60;9.30;;;3.00;99.90;;;;;;5144205;27;20305;-81
2023/12/22 06:59:02;;;;;;;9.80;9.50;;;3.00;99.90;;;;;;5144128;27;20220;-79
2023/12/22 07:01:50;;;;;;;9.80;9.50;;;3.10;99.90;;;;;;5123261;27;20493;-81
2023/12/22 07:04:18;;;;;;;9.77;9.47;;;3.20;99.90;;;;;;5106573;28;20327;-78
2023/12/22 07:06:47;;;;;;;9.80;9.50;;;3.30;99.90;;;;;;5114061;28;20221;-78
2023/12/22 07:09:32;;;;;;;9.83;9.53;;;3.40;99.90;;;;;;5113549;28;20264;-78
2023/12/22 07:11:59;;;;;;;9.80;9.50;;;3.50;99.90;;;;;;5114115;27;20225;-79
2023/12/22 07:14:26;;;;;;;9.73;9.43;;;3.50;99.90;;;;;;5111288;27;20234;-78
2023/12/22 07:16:57;;;;;;;9.83;9.53;;;3.60;99.90;;;;;;5116085;27;20224;-78
2023/12/22 07:19:25;;;;;;;9.60;9.30;;;3.70;99.90;;;;;;5115421;28;20232;-77
2023/12/22 07:21:52;;;;;;;9.67;9.37;;;3.70;99.90;;;;;;5117288;27;20218;-77
2023/12/22 07:24:20;;;;;;;9.83;9.53;;;3.80;99.90;;;;;;5116231;27;20237;-79
2023/12/22 07:26:47;;;;;;;10.20;9.90;;;3.90;99.90;;;;;;5114652;28;20229;-80
2023/12/22 07:29:14;;;;;;;9.80;9.50;;;3.90;99.90;;;;;;5115243;28;20225;-80
2023/12/22 07:31:42;;;;;;;9.80;9.50;;;4.00;99.90;;;;;;5116993;27;20214;-80
2023/12/22 07:34:17;;;;;;;10.15;9.85;;;4.00;99.90;;;;;;5116461;27;20388;-79
2023/12/22 07:36:44;;;;;;;9.67;9.37;;;4.00;99.90;;;;;;5115891;27;20285;-82
2023/12/22 07:39:12;;;;;;;9.70;9.40;;;4.10;99.90;;;;;;5115611;27;20218;-81
2023/12/22 07:41:39;;;;;;;9.30;9.00;;;4.20;99.90;;;;;;5112539;27;20284;-82
2023/12/22 07:44:14;;;;;;;9.33;9.03;;;4.20;99.90;;;;;;5116680;27;20225;-80
2023/12/22 07:46:42;;;;;;;9.40;9.10;;;4.30;99.90;;;;;;5117211;27;20217;-81
2023/12/22 07:49:15;;;;;;;9.43;9.13;;;4.30;99.90;;;;;;5117198;27;20241;-82
2023/12/22 07:51:42;;;;;;;9.30;9.00;;;4.30;99.90;;;;;;5116343;27;20260;-81
2023/12/22 07:54:10;;;;;;;9.27;8.97;;;4.40;99.90;;;;;;5116064;27;20229;-80
2023/12/22 07:56:38;;;;;;;8.97;8.67;;;4.40;99.90;;;;;;5117008;27;20228;-81
2023/12/22 07:59:10;;;;;;;9.40;9.10;;;4.40;99.90;;;;;;5116900;27;20202;-81
2023/12/22 08:01:38;;;;;;;9.00;8.70;;;4.40;99.90;;;;;;5116737;27;20217;-81
2023/12/22 08:04:05;;;;;;;9.10;8.80;;;4.40;99.90;;;;;;5116613;27;20306;-82
2023/12/22 08:06:39;;;;;;;9.30;9.00;;;4.40;99.90;;;;;;5104526;28;20252;-82
2023/12/22 08:09:06;;;;;;;9.23;8.93;;;4.50;99.90;;;;;;5102059;28;20237;-81
2023/12/22 08:11:33;;;;;;;9.63;9.33;;;4.50;99.90;;;;;;5098269;28;20290;-81
2023/12/22 08:14:00;;;;;;;9.53;9.23;;;4.50;99.90;;;;;;5089508;28;20238;-84
2023/12/22 08:16:29;;;;;;;9.80;9.50;;;4.50;99.90;;;;;;5087770;28;20232;-86
2023/12/22 08:19:06;;;;;;;9.63;9.33;;;4.50;99.90;;;;;;5085761;28;20230;-85
2023/12/22 08:21:33;;;;;;;9.70;9.40;;;4.50;99.90;;;;;;5089613;28;20238;-82
2023/12/22 08:24:02;;;;;;;9.50;9.20;;;4.50;99.90;;;;;;5084505;28;20241;-81
2023/12/22 08:26:29;;;;;;;9.47;9.17;;;4.50;99.90;;;;;;5078733;28;20249;-83
2023/12/22 08:28:57;;;;;;;9.20;8.90;;;4.50;99.90;;;;;;5082895;28;20226;-82
2023/12/22 08:31:26;;;;;;;9.57;9.27;;;4.50;99.90;;;;;;5088622;28;20230;-84
2023/12/22 08:33:53;;;;;;;9.07;8.77;;;4.60;99.90;;;;;;5084184;28;20261;-82
2023/12/22 08:36:21;;;;;;;9.20;8.90;;;4.60;99.90;;;;;;5082876;28;20249;-83
2023/12/22 08:38:48;;;;;;;9.70;9.40;;;4.60;99.90;;;;;;5079549;28;20230;-84
2023/12/22 08:41:17;;;;;;;9.47;9.17;;;4.60;99.90;;;;;;5074355;28;20238;-85
2023/12/22 08:43:45;;;;;;;9.47;9.17;;;4.60;99.90;;;;;;5081296;28;20242;-83
2023/12/22 08:46:13;;;;;;;9.23;8.93;;;4.60;99.90;;;;;;5080675;28;20226;-84
2023/12/22 08:48:40;;;;;;;9.40;9.10;;;4.60;99.90;;;;;;5080927;28;20244;-84
2023/12/22 08:51:07;;;;;;;9.70;9.40;;;4.60;99.90;;;;;;5086126;28;20288;-84
2023/12/22 08:53:37;;;;;;;9.80;9.50;;;4.60;99.90;;;;;;5074235;28;20297;-84
2023/12/22 08:56:05;;;;;;;9.43;9.13;;;4.60;99.90;;;;;;5075531;28;20226;-84
2023/12/22 08:58:34;;;;;;;9.43;9.13;;;4.70;99.90;;;;;;5085400;28;20229;-84
2023/12/22 09:01:01;;;;;;;9.70;9.40;;;4.70;99.90;;;;;;5082013;28;20234;-84
2023/12/22 09:03:30;;;;;;;9.60;9.30;;;4.70;99.90;;;;;;5082698;28;20245;-84
2023/12/22 09:05:57;;;;;;;9.30;9.00;;;4.80;99.90;;;;;;5083583;28;20242;-84
2023/12/22 09:08:24;;;;;;;9.40;9.10;;;4.90;99.90;;;;;;5084265;28;20226;-81
2023/12/22 09:10:52;;;;;;;9.50;9.20;;;4.90;99.90;;;;;;5087869;28;20226;-82
2023/12/22 09:13:21;;;;;;;9.60;9.30;;;5.00;99.90;;;;;;5087438;28;20260;-82
2023/12/22 09:15:50;;;;;;;9.20;8.90;;;5.10;99.90;;;;;;5084372;28;20234;-81
2023/12/22 09:18:17;;;;;;;9.20;8.90;;;5.10;99.90;;;;;;5090227;28;20218;-81
2023/12/22 09:20:45;;;;;;;9.17;8.87;;;5.20;99.90;;;;;;5084794;28;20257;-81
2023/12/22 09:23:12;;;;;;;9.50;9.20;;;5.30;99.90;;;;;;5085066;27;20226;-82
2023/12/22 09:25:39;;;;;;;9.80;9.50;;;5.40;99.90;;;;;;5088524;28;20230;-81
2023/12/22 09:28:07;;;;;;;9.80;9.50;;;5.50;99.90;;;;;;5083112;28;20238;-77
2023/12/22 09:30:34;;;;;;;10.00;9.70;;;5.50;99.90;;;;;;5078202;28;20287;-79
2023/12/22 09:33:04;;;;;;;10.10;9.80;;;5.70;99.90;;;;;;5078120;28;20315;-76
2023/12/22 09:35:41;;;;;;;9.80;9.50;;;5.80;99.90;;;;;;5082844;28;20245;-85
2023/12/22 09:38:09;;;;;;;9.87;9.57;;;5.80;99.90;;;;;;5083359;28;20226;-82
2023/12/22 09:40:38;;;;;;;9.93;9.63;;;5.70;99.90;;;;;;5084468;28;20242;-82
2023/12/22 09:43:08;;;;;;;9.97;9.67;;;5.70;99.90;;;;;;5083182;28;20231;-81
2023/12/22 09:45:39;;;;;;;9.80;9.50;;;5.70;99.90;;;;;;5083971;28;20808;-83
2023/12/22 09:48:16;;;;;;;10.03;9.73;;;5.70;99.90;;;;;;5083855;28;20269;-81
2023/12/22 09:50:45;;;;;;;10.40;10.10;;;5.70;99.90;;;;;;5084991;28;20228;-80
2023/12/22 09:53:14;;;;;;;10.70;10.40;;;5.60;99.90;;;;;;5086048;28;20238;-81
2023/12/22 09:55:51;;;;;;;10.50;10.20;;;5.60;99.90;;;;;;5084236;28;20226;-83
2023/12/22 09:58:25;;;;;;;10.30;10.00;;;5.60;99.90;;;;;;5084463;28;20252;-84
2023/12/22 10:00:56;;;;;;;10.30;10.00;;;5.50;99.90;;;;;;5083653;28;20245;-83
2023/12/22 10:03:27;;;;;;;10.07;9.77;;;5.40;99.90;;;;;;5084370;28;20241;-83
2023/12/22 10:05:54;;;;;;;10.33;10.03;;;5.20;99.90;;;;;;5083775;28;20289;-80
2023/12/22 10:08:22;;;;;;;9.70;9.40;;;5.20;99.90;;;;;;5084322;28;20279;-82
2023/12/22 10:10:52;;;;;;;9.50;9.20;;;5.10;99.90;;;;;;5084377;28;20233;-84
2023/12/22 10:13:20;;;;;;;9.40;9.10;;;5.10;99.90;;;;;;5084313;28;20333;-83
2023/12/22 10:15:56;;;;;;;9.53;9.23;;;5.00;99.90;;;;;;5084340;28;20292;-82
2023/12/22 10:18:26;;;;;;;9.30;9.00;;;5.10;99.90;;;;;;5083978;28;20234;-81
2023/12/22 10:21:09;;;;;;;9.37;9.07;;;5.00;99.90;;;;;;5084142;28;20234;-81
2023/12/22 10:23:47;;;;;;;9.10;8.80;;;5.10;99.90;;;;;;5082008;28;20234;-81
2023/12/22 10:26:17;;;;;;;8.83;8.63;;;5.10;99.90;;;;;;5085403;28;20237;-81
2023/12/22 10:28:45;;;;;;;9.00;8.70;;;5.10;99.90;;;;;;5084605;28;20219;-80
2023/12/22 10:31:12;;;;;;;8.77;8.57;;;5.20;99.90;;;;;;5084121;28;20299;-82
2023/12/22 10:33:41;;;;;;;9.07;8.77;;;5.30;99.90;;;;;;5083865;28;20230;-82
2023/12/22 10:36:11;;;;;;;8.93;8.63;;;5.30;99.90;;;;;;5084143;28;20284;-82
2023/12/22 10:38:39;;;;;;;9.00;8.70;;;5.30;99.90;;;;;;5084270;28;20257;-83
2023/12/22 10:41:30;;;;;;;8.93;8.63;;;5.30;99.90;;;;;;5083829;28;20260;-83
2023/12/22 10:44:03;;;;;;;9.30;9.00;;;5.20;99.90;;;;;;5083651;28;20249;-84
2023/12/22 10:46:41;;;;;;;8.73;8.53;;;5.00;99.90;;;;;;5083973;28;20307;-83
2023/12/22 10:50:07;;;;;;;9.13;8.83;;;4.90;99.90;;;;;;5085208;28;20226;-83
2023/12/22 10:52:44;;;;;;;9.60;9.30;;;4.80;99.90;;;;;;5083000;28;20278;-82
2023/12/22 10:55:13;;;;;;;9.10;8.80;;;5.00;99.90;;;;;;5063806;28;20245;-83
2023/12/22 10:57:41;;;;;;;9.60;9.30;;;5.00;99.90;;;;;;5063792;28;20231;-83
2023/12/22 11:00:12;;;;;;;9.30;9.00;;;5.10;99.90;;;;;;5063546;28;20243;-81
2023/12/22 11:02:43;;;;;;;9.20;8.90;;;5.30;99.90;;;;;;5063329;28;20322;-81
2023/12/22 11:05:25;;;;;;;9.33;9.03;;;5.40;99.90;;;;;;5063621;28;20267;-80
2023/12/22 11:08:03;;;;;;;9.03;8.73;;;5.40;99.90;;;;;;5062778;28;20230;-80
2023/12/22 11:10:33;;;;;;;8.90;8.70;;;5.50;99.90;;;;;;5067052;28;20245;-81
2023/12/22 11:13:03;;;;;;;8.80;8.60;;;5.50;99.90;;;;;;5082735;28;20230;-84
2023/12/22 11:15:32;;;;;;;9.20;8.90;;;5.50;99.90;;;;;;5082947;28;20230;-80
2023/12/22 11:18:00;;;;;;;9.23;8.93;;;5.50;99.90;;;;;;5084622;28;20226;-81
2023/12/22 11:20:32;;;;;;;9.40;9.10;;;5.50;99.90;;;;;;5083644;28;20600;-80
2023/12/22 11:23:01;;;;;;;9.73;9.43;;;5.50;99.90;;;;;;5084135;28;20314;-82
2023/12/22 11:25:31;;;;;;;9.60;9.30;;;5.40;99.90;;;;;;5083378;28;20256;-80
2023/12/22 11:28:01;;;;;;;9.57;9.27;;;5.40;99.90;;;;;;5084450;28;20218;-82
2023/12/22 11:30:30;;;;;;;9.40;9.10;;;5.40;99.90;;;;;;5084485;28;20276;-80
2023/12/22 11:32:58;;;;;;;8.97;8.73;;;5.40;99.90;;;;;;5076273;28;20249;-80
2023/12/22 11:35:25;;;;;;;9.47;9.17;;;5.50;99.90;;;;;;5068656;28;20224;-81
2023/12/22 11:37:55;;;;;;;9.40;9.10;;;5.50;99.90;;;;;;5084592;28;20229;-81
2023/12/22 11:40:22;;;;;;;8.50;8.30;;;5.50;99.90;;;;;;5084704;28;20222;-80
2023/12/22 11:42:52;;;;;;;8.50;8.30;;;5.50;99.90;;;;;;5083724;28;20234;-81
2023/12/22 11:45:24;;;;;;;9.07;8.77;;;5.60;99.90;;;;;;5085538;28;20234;-84
2023/12/22 11:47:52;;;;;;;9.30;9.00;;;5.60;99.90;;;;;;5091565;28;20226;-83
2023/12/22 11:50:30;;;;;;;9.20;8.90;;;5.60;99.90;;;;;;5093638;28;20211;-82
2023/12/22 11:53:20;;;;;;;9.23;8.93;;;5.70;99.90;;;;;;5101711;27;20291;-82
2023/12/22 11:56:07;;;;;;;9.20;8.90;;;5.70;99.90;;;;;;5102292;27;20217;-83
2023/12/22 11:59:09;;;;;;;9.13;8.83;;;5.70;99.90;;;;;;5094522;27;20244;-83
2023/12/22 12:01:44;;;;;;;9.33;9.03;;;5.80;99.90;;;;;;5088323;28;20253;-84
2023/12/22 12:04:25;;;;;;;9.20;8.90;;;5.90;99.90;;;;;;5090299;28;20269;-84
2023/12/22 12:07:02;;;;;;;9.50;9.20;;;5.90;99.90;;;;;;5092220;28;20284;-83
2023/12/22 12:10:01;;;;;;;9.43;9.13;;;6.00;99.90;;;;;;5089743;28;20230;-84
2023/12/22 12:12:29;;;;;;;8.63;8.43;;;6.10;99.90;;;;;;5084433;28;20230;-83
2023/12/22 12:15:08;;;;;;;9.30;9.00;;;6.10;99.90;;;;;;5087189;28;20230;-83
2023/12/22 12:20:25;;;;;;;9.30;9.00;;;6.30;99.90;;;;;;5127946;28;20228;-86
2023/12/22 12:22:53;;;;;;;9.23;8.93;;;6.30;99.90;;;;;;5117103;28;20226;-86
2023/12/22 12:28:08;;;;;;;9.50;9.20;;;6.40;99.90;;;;;;5107876;28;20261;-88
2023/12/22 12:30:39;;;;;;;9.43;9.13;;;6.50;99.90;;;;;;5123075;28;20240;-88
2023/12/22 12:35:55;;;;;;;9.90;9.60;;;6.60;99.90;;;;;;5129397;28;20224;-87
2023/12/22 12:38:42;;;;;;;9.70;9.40;;;6.70;99.90;;;;;;5131783;28;20228;-87
2023/12/22 12:41:13;;;;;;;9.50;9.20;;;6.70;99.90;;;;;;5121429;28;20221;-86
2023/12/22 12:46:26;;;;;;;8.70;8.50;;;6.70;99.90;;;;;;5129720;27;20244;-87
2023/12/22 12:49:05;;;;;;;8.47;8.27;;;6.80;99.90;;;;;;5129928;28;20232;-87
2023/12/22 12:54:31;;;;;;;8.63;8.43;;;6.90;99.90;;;;;;5131927;28;20213;-84
2023/12/22 12:57:01;;;;;;;8.40;8.20;;;6.90;99.90;;;;;;5134188;27;20229;-86
2023/12/22 12:59:29;;;;;;;9.30;9.00;;;7.00;99.90;;;;;;5130092;28;20286;-85
2023/12/22 13:02:08;;;;;;;8.50;8.30;;;7.00;99.90;;;;;;5130261;28;20255;-87
2023/12/22 13:04:39;;;;;;;9.40;9.10;;;7.00;99.90;;;;;;5129465;28;20217;-87
2023/12/22 13:07:07;;;;;;;9.30;9.00;;;7.00;99.90;;;;;;5129226;28;20236;-87
2023/12/22 13:09:35;;;;;;;8.80;8.60;;;7.10;99.90;;;;;;5129508;28;20367;-86
2023/12/22 13:14:52;;;;;;;9.20;8.90;;;7.20;99.90;;;;;;5132183;27;20209;-87
2023/12/22 13:17:21;;;;;;;9.20;8.90;;;7.20;99.90;;;;;;5128102;27;20240;-86
2023/12/22 13:20:01;;;;;;;9.20;8.90;;;7.20;99.90;;;;;;5128728;28;20225;-86
2023/12/22 13:22:29;;;;;;;9.37;9.07;;;7.30;99.90;;;;;;5130347;28;20246;-86
2023/12/22 13:24:59;;;;;;;9.57;9.27;;;7.30;99.90;;;;;;5129354;28;20240;-86
2023/12/22 13:27:30;;;;;;;9.70;9.40;;;7.30;99.90;;;;;;5129035;28;20233;-85
2023/12/22 13:29:58;;;;;;;9.63;9.33;;;7.30;99.90;;;;;;5110961;28;20316;-86
2023/12/22 13:32:27;;;;;;;9.40;9.10;;;7.30;99.90;;;;;;5130017;28;20225;-86
2023/12/22 13:34:57;;;;;;;10.00;9.70;;;7.30;99.90;;;;;;5131593;28;20225;-87
2023/12/22 13:37:27;;;;;;;9.80;9.50;;;7.40;99.90;;;;;;5129776;28;20228;-86
2023/12/22 13:39:56;;;;;;;9.50;9.20;;;7.40;99.90;;;;;;5128689;28;20229;-86
2023/12/22 13:42:24;;;;;;;9.60;9.30;;;7.40;99.90;;;;;;5128815;28;20239;-87
2023/12/22 13:47:43;;;;;;;10.13;9.83;;;7.30;99.90;;;;;;5128891;28;20220;-85
2023/12/22 13:50:23;;;;;;;10.23;9.93;;;7.30;99.90;;;;;;5128945;28;20208;-85
2023/12/22 13:52:51;;;;;;;10.20;9.90;;;7.30;99.90;;;;;;5129898;28;20229;-86
2023/12/22 13:55:22;;;;;;;9.90;9.60;;;7.30;99.90;;;;;;5129976;28;20320;-87
2023/12/22 13:57:50;;;;;;;10.20;9.90;;;7.20;99.90;;;;;;5128638;28;20240;-86
2023/12/22 14:00:31;;;;;;;9.90;9.60;;;7.20;99.90;;;;;;5129645;28;20232;-84
2023/12/22 14:02:59;;;;;;;9.87;9.57;;;7.20;99.90;;;;;;5129212;28;20225;-87
2023/12/22 14:05:28;;;;;;;9.50;9.20;;;7.20;99.90;;;;;;5129687;28;20225;-87
2023/12/22 14:07:56;;;;;;;9.80;9.50;;;7.20;99.90;;;;;;5127940;28;20263;-88
2023/12/22 14:10:25;;;;;;;9.70;9.40;;;7.20;99.90;;;;;;5130660;27;20212;-86
2023/12/22 14:13:04;;;;;;;9.60;9.30;;;7.10;99.90;;;;;;5127449;28;20225;-86
2023/12/22 14:15:36;;;;;;;9.33;9.03;;;7.10;99.90;;;;;;5127872;28;20227;-87
2023/12/22 14:18:04;;;;;;;9.60;9.30;;;7.10;99.90;;;;;;5126288;27;20332;-86
2023/12/22 14:20:32;;;;;;;9.40;9.10;;;7.10;99.90;;;;;;5127172;28;20233;-87
2023/12/22 14:25:40;;;;;;;9.70;9.40;;;7.10;99.90;;;;;;5131573;28;20213;-86
2023/12/22 14:28:09;;;;;;;9.30;9.00;;;7.10;99.90;;;;;;5134938;28;20290;-87
2023/12/22 14:30:47;;;;;;;8.77;8.57;;;7.20;99.90;;;;;;5130895;28;20233;-86
2023/12/22 14:33:26;;;;;;;9.23;8.93;;;7.30;99.90;;;;;;5129487;28;20209;-86
2023/12/22 14:35:55;;;;;;;9.03;8.73;;;7.30;99.90;;;;;;5127695;28;20239;-87
2023/12/22 14:38:34;;;;;;;8.47;8.27;;;7.40;99.90;;;;;;5127723;28;20236;-87
2023/12/22 14:41:03;;;;;;;8.40;8.20;;;7.30;99.90;;;;;;5129184;28;20286;-87
2023/12/22 14:43:32;;;;;;;8.47;8.27;;;7.40;99.90;;;;;;5128297;28;20232;-87
2023/12/22 14:48:50;;;;;;;9.27;8.97;;;7.50;99.90;;;;;;5135742;28;20266;-87
2023/12/22 14:51:17;;;;;;;9.20;8.90;;;7.50;99.90;;;;;;5130648;28;20301;-88
2023/12/22 14:53:57;;;;;;;8.73;8.53;;;7.60;99.90;;;;;;5136435;27;20224;-84
2023/12/22 14:56:25;;;;;;;9.20;8.90;;;7.60;99.90;;;;;;5136833;27;20244;-87
2023/12/22 14:59:04;;;;;;;9.30;9.00;;;7.60;99.90;;;;;;5128105;28;20229;-86
2023/12/22 15:01:35;;;;;;;9.33;9.03;;;7.60;99.90;;;;;;5127366;28;20236;-87
2023/12/22 15:04:03;;;;;;;9.30;9.00;;;7.70;99.90;;;;;;5126541;28;20286;-86
2023/12/22 15:06:32;;;;;;;9.60;9.30;;;7.70;99.90;;;;;;5126452;28;20216;-87
2023/12/22 15:14:26;;;;;;;9.67;9.37;;;7.70;99.90;;;;;;5125224;27;20288;-86
2023/12/22 15:16:59;;;;;;;9.70;9.40;;;7.60;99.90;;;;;;5125151;27;20225;-86
2023/12/22 15:19:27;;;;;;;9.40;9.10;;;7.50;99.90;;;;;;5126049;28;20232;-87
2023/12/22 15:21:56;;;;;;;9.60;9.30;;;7.60;99.90;;;;;;5126491;28;20228;-86
2023/12/22 15:24:26;;;;;;;9.47;9.17;;;7.60;99.90;;;;;;5129008;28;20254;-87
2023/12/22 15:26:54;;;;;;;9.63;9.33;;;7.50;99.90;;;;;;5129142;28;20290;-87
2023/12/22 15:29:24;;;;;;;9.63;9.33;;;7.50;99.90;;;;;;5128811;28;20232;-87